createdAt,value
2023-05-19T00:03:52.656Z,0
2023-05-19T00:04:17.681Z,0
2023-05-19T00:09:36.521Z,0
2023-05-19T00:14:55.906Z,0
2023-05-19T00:20:15.110Z,0
2023-05-19T00:25:34.213Z,0
2023-05-19T00:36:12.879Z,0
2023-05-19T00:41:32.586Z,0
2023-05-19T00:52:11.365Z,0
2023-05-19T00:57:30.347Z,0
2023-05-19T01:02:49.853Z,0
2023-05-19T01:08:09.690Z,0
2023-05-19T01:13:29.201Z,0
2023-05-19T01:18:49.412Z,0
2023-05-19T01:24:08.183Z,0
2023-05-19T01:30:42.319Z,0
2023-05-19T01:34:48.180Z,0
2023-05-19T01:40:07.215Z,0
2023-05-19T01:45:26.773Z,0
2023-05-19T01:50:45.745Z,0
2023-05-19T01:56:04.841Z,0
2023-05-19T02:01:24.640Z,0
2023-05-19T02:06:44.176Z,0
2023-05-19T02:12:03.800Z,0
2023-05-19T02:17:22.948Z,0
2023-05-19T02:22:42.517Z,0
2023-05-19T02:33:20.198Z,0
2023-05-19T02:43:58.753Z,0
2023-05-19T02:49:18.098Z,0
2023-05-19T02:54:36.096Z,0
2023-05-19T02:59:55.146Z,0
2023-05-19T03:05:14.730Z,0
2023-05-19T03:10:33.783Z,0
2023-05-19T03:15:53.147Z,0
2023-05-19T03:26:31.301Z,1
2023-05-19T03:37:10.409Z,15.78
2023-05-19T03:42:29.381Z,20.34
2023-05-19T03:47:48.579Z,20.37
2023-05-19T03:53:07.325Z,25.73
2023-05-19T03:58:26.626Z,24.89
2023-05-19T04:03:46.124Z,26.16
2023-05-19T04:09:05.858Z,29.31
2023-05-19T04:14:25.346Z,32.68
2023-05-19T04:19:45.065Z,39.72
2023-05-19T04:25:03.895Z,40.12
2023-05-19T04:35:42.459Z,52.37
2023-05-19T04:41:02.182Z,55.89
2023-05-19T04:51:41.011Z,70.37
2023-05-19T04:57:00.680Z,77.02
2023-05-19T05:02:20.937Z,81.98
2023-05-19T05:07:39.989Z,83.52
2023-05-19T05:12:59.208Z,92.8
2023-05-19T05:18:18.795Z,90.7
2023-05-19T05:23:37.962Z,94.34
2023-05-19T05:28:57.732Z,121.84
2023-05-19T05:34:16.779Z,181.48
2023-05-19T05:50:14.010Z,231.64
2023-05-19T06:00:52.662Z,392.13
2023-05-19T06:06:11.572Z,245.41
2023-05-19T06:11:30.439Z,182.55
2023-05-19T06:16:49.418Z,169.64
2023-05-19T06:22:08.367Z,166.66
2023-05-19T06:28:42.500Z,170.66
2023-05-19T06:32:47.897Z,188.78
2023-05-19T06:38:07.489Z,175.8
2023-05-19T06:43:26.453Z,184.38
2023-05-19T06:48:45.331Z,217.96
2023-05-19T06:54:04.942Z,232.84
2023-05-19T06:59:23.618Z,189.19
2023-05-19T07:04:43.374Z,179.46
2023-05-19T07:15:21.392Z,185.36
2023-05-19T07:20:40.394Z,191.64
2023-05-19T07:25:59.504Z,229.37
2023-05-19T07:31:18.902Z,32.01
2023-05-19T07:36:38.581Z,235.12
2023-05-19T07:41:57.260Z,317.9
2023-05-19T07:47:16.665Z,291.4
2023-05-19T07:52:35.400Z,395.18
2023-05-19T07:57:54.564Z,435.84
2023-05-19T08:03:13.478Z,589.71
2023-05-19T08:08:33.010Z,374.31
2023-05-19T08:13:52.295Z,299.71
2023-05-19T08:19:10.992Z,406.43
2023-05-19T08:24:30.040Z,458.7
2023-05-19T08:29:49.131Z,279.92
2023-05-19T08:35:07.987Z,242.35
2023-05-19T08:40:26.775Z,259.21
2023-05-19T08:51:04.685Z,586.05
2023-05-19T08:56:23.943Z,454.75
2023-05-19T09:01:41.705Z,391.37
2023-05-19T09:07:00.619Z,325.89
2023-05-19T09:12:19.557Z,315.16
2023-05-19T09:17:39.103Z,426.94
2023-05-19T09:22:58.553Z,329.15
2023-05-19T09:28:17.783Z,339.59
2023-05-19T09:33:36.441Z,337.59
2023-05-19T09:38:55.213Z,303.22
2023-05-19T09:49:33.600Z,268.29
2023-05-19T09:54:53.243Z,271.19
2023-05-19T10:00:12.755Z,268.74
2023-05-19T10:05:40.540Z,271.88
2023-05-19T10:10:51.865Z,272.49
2023-05-19T10:16:11.159Z,255.94
2023-05-19T10:21:30.228Z,233.25
2023-05-19T10:26:49.500Z,282.42
2023-05-19T10:32:08.763Z,316.14
2023-05-19T10:37:27.289Z,316.07
2023-05-19T10:42:45.964Z,334.29
2023-05-19T10:48:04.909Z,338.75
2023-05-19T10:53:24.113Z,273.48
2023-05-19T10:58:42.959Z,232.21
2023-05-19T11:09:28.526Z,205.03
2023-05-19T11:14:39.332Z,206.77
2023-05-19T11:19:58.848Z,248.41
2023-05-19T11:25:17.850Z,237.81
2023-05-19T11:30:36.800Z,225.4
2023-05-19T11:41:14.477Z,228.12
2023-05-19T11:46:33.894Z,238.52
2023-05-19T11:51:52.756Z,323.51
2023-05-19T11:57:12.271Z,379.98
2023-05-19T12:02:31.189Z,286.88
2023-05-19T12:07:49.972Z,299.72
2023-05-19T12:13:08.777Z,393.25
2023-05-19T12:18:27.995Z,362.22
2023-05-19T12:23:47.625Z,317.02
2023-05-19T12:29:07.129Z,396.05
2023-05-19T12:39:46.098Z,286.49
2023-05-19T12:50:23.042Z,222.43
2023-05-19T12:55:42.413Z,178.01
2023-05-19T13:06:20.940Z,197.67
2023-05-19T13:11:40.216Z,213.87
2023-05-19T13:22:27.897Z,280.25
2023-05-19T13:27:38.001Z,308.53
2023-05-19T13:32:56.781Z,371.15
2023-05-19T13:38:15.892Z,322.37
2023-05-19T13:43:34.881Z,286.58
2023-05-19T13:48:54.530Z,285.57
2023-05-19T13:54:13.785Z,295.5
2023-05-19T13:59:32.857Z,321.89
2023-05-19T14:05:00.728Z,412.52
2023-05-19T14:10:10.483Z,345.74
2023-05-19T14:15:29.315Z,378.71
2023-05-19T14:20:48.187Z,616.95
2023-05-19T14:31:27.131Z,378.14
2023-05-19T14:36:46.733Z,302.66
2023-05-19T14:42:06.020Z,275.34
2023-05-19T14:47:26.337Z,316.46
2023-05-19T14:52:43.877Z,269.98
2023-05-19T14:58:04.560Z,228.9
2023-05-19T15:03:22.040Z,214.68
2023-05-19T15:08:41.702Z,225.88
2023-05-19T15:14:00.777Z,237.99
2023-05-19T15:19:20.388Z,419.91
2023-05-19T15:24:39.941Z,264.15
2023-05-19T15:29:59.167Z,236.98
2023-05-19T15:35:18.751Z,247.19
2023-05-19T15:40:37.490Z,244.6
2023-05-19T15:45:56.394Z,238.38
2023-05-19T15:51:15.292Z,193.34
2023-05-19T15:56:34.501Z,178.49
2023-05-19T16:01:53.531Z,182.94
2023-05-19T16:07:12.681Z,173.28
2023-05-19T16:12:32.062Z,167.32
2023-05-19T16:17:51.222Z,154.81
2023-05-19T16:23:10.620Z,152.09
2023-05-19T16:28:29.479Z,150.76
2023-05-19T16:33:49.154Z,144.09
2023-05-19T16:39:07.964Z,134.01
2023-05-19T16:44:26.787Z,131.63
2023-05-19T16:49:45.587Z,147.89
2023-05-19T16:55:04.704Z,131.37
2023-05-19T17:00:23.594Z,135.63
2023-05-19T17:05:42.696Z,132.75
2023-05-19T17:11:02.152Z,133.85
2023-05-19T17:21:40.612Z,111
2023-05-19T17:26:59.492Z,102.94
2023-05-19T17:32:18.305Z,100.88
2023-05-19T17:37:37.928Z,94.07
2023-05-19T17:42:56.862Z,89.62
2023-05-19T17:48:15.958Z,79.5
2023-05-19T17:48:40.988Z,77.27
2023-05-19T17:53:59.727Z,72.29
2023-05-19T17:59:18.904Z,62.1
2023-05-19T18:04:38.380Z,58.12
2023-05-19T18:10:07.163Z,50.86
2023-05-19T18:20:35.714Z,40.41
2023-05-19T18:25:54.785Z,36.07
2023-05-19T18:31:13.673Z,31.91
2023-05-19T18:36:32.679Z,27.96
2023-05-19T18:41:51.490Z,23.6
2023-05-19T18:47:10.426Z,21.47
2023-05-19T18:52:29.472Z,17.24
2023-05-19T18:57:48.252Z,15.78
2023-05-19T19:03:07.491Z,10
2023-05-19T19:08:26.559Z,7
2023-05-19T19:13:46.144Z,3
2023-05-19T19:19:05.864Z,0
2023-05-19T19:24:24.990Z,0
2023-05-19T19:29:44.168Z,0
2023-05-19T19:35:03.188Z,0
2023-05-19T19:40:22.617Z,0
2023-05-19T19:45:41.475Z,0
2023-05-19T19:51:00.711Z,0
2023-05-19T19:56:20.259Z,0
2023-05-19T20:01:39.756Z,0
2023-05-19T20:06:58.439Z,0
2023-05-19T20:17:46.830Z,0
2023-05-19T20:22:55.781Z,0
2023-05-19T20:28:15.106Z,0
2023-05-19T20:33:34.425Z,0
2023-05-19T20:38:53.925Z,0
2023-05-19T20:44:13.196Z,0
2023-05-19T20:49:32.544Z,0
2023-05-19T20:54:51.374Z,0
2023-05-19T21:00:10.838Z,0
2023-05-19T21:05:29.947Z,0
2023-05-19T21:10:49.008Z,0
2023-05-19T21:16:07.942Z,0
2023-05-19T21:21:27.021Z,0
2023-05-19T21:26:56.279Z,0
2023-05-19T21:32:05.403Z,0
2023-05-19T21:37:24.277Z,0
2023-05-19T21:42:43.181Z,0
2023-05-19T21:48:02.361Z,0
2023-05-19T21:53:21.310Z,0
2023-05-19T21:58:40.525Z,0
2023-05-19T22:04:00.020Z,0
2023-05-19T22:09:19.092Z,0
2023-05-19T22:14:38.630Z,0
2023-05-19T22:19:58.200Z,0
2023-05-19T22:25:17.400Z,0
2023-05-19T22:30:38.569Z,0
2023-05-19T22:41:15.628Z,0
2023-05-19T22:51:55.358Z,0
2023-05-19T22:57:14.804Z,0
2023-05-19T23:02:34.031Z,0
2023-05-19T23:07:53.724Z,0
2023-05-19T23:13:12.456Z,0
2023-05-19T23:18:31.859Z,0
2023-05-19T23:23:51.408Z,0
2023-05-19T23:29:10.546Z,0
2023-05-19T23:34:30.132Z,0
2023-05-19T23:45:08.405Z,0
2023-05-19T23:50:27.686Z,0
2023-05-19T23:55:46.526Z,0
